createdAt,value
2023-04-02T00:05:16.918Z,77.35
2023-04-02T00:15:22.296Z,77.37
2023-04-02T00:25:30.570Z,77.71
2023-04-02T00:35:39.591Z,78.52
2023-04-02T00:45:51.691Z,78.80
2023-04-02T00:55:58.863Z,79.13
2023-04-02T01:06:31.652Z,79.36
2023-04-02T01:17:08.867Z,79.65
2023-04-02T01:27:28.949Z,79.59
2023-04-02T01:38:02.350Z,79.80
2023-04-02T01:48:14.120Z,79.94
2023-04-02T01:58:24.326Z,79.96
2023-04-02T02:08:39.524Z,80.16
2023-04-02T02:18:49.819Z,80.24
2023-04-02T02:28:56.945Z,80.33
2023-04-02T02:39:22.016Z,80.29
2023-04-02T02:49:33.370Z,80.53
2023-04-02T02:59:38.605Z,80.37
2023-04-02T03:09:59.233Z,80.16
2023-04-02T03:20:14.965Z,79.53
2023-04-02T03:30:50.077Z,79.05
2023-04-02T03:41:05.624Z,78.67
2023-04-02T03:51:26.756Z,78.14
2023-04-02T04:01:36.786Z,77.77
2023-04-02T04:11:47.125Z,77.62
2023-04-02T04:21:57.247Z,77.60
2023-04-02T04:32:27.819Z,77.25
2023-04-02T04:42:40.445Z,76.90
2023-04-02T04:52:46.510Z,77.26
2023-04-02T05:03:13.611Z,77.76
2023-04-02T05:13:47.621Z,78.38
2023-04-02T05:24:03.685Z,78.69
2023-04-02T05:34:11.700Z,78.88
2023-04-02T05:44:27.947Z,78.69
2023-04-02T05:54:40.331Z,78.96
2023-04-02T06:04:54.012Z,79.22
2023-04-02T06:15:00.210Z,78.90
2023-04-02T06:25:36.878Z,78.03
2023-04-02T06:35:43.372Z,77.26
2023-04-02T06:45:51.880Z,77.40
2023-04-02T06:56:39.857Z,77.62
2023-04-02T07:06:44.654Z,77.54
2023-04-02T07:16:53.721Z,77.13
2023-04-02T07:26:59.925Z,76.93
2023-04-02T07:37:04.140Z,76.44
2023-04-02T07:47:08.995Z,76.15
2023-04-02T07:57:13.258Z,75.46
2023-04-02T08:07:20.790Z,75.18
2023-04-02T08:17:24.774Z,75.18
2023-04-02T08:27:28.459Z,75.16
2023-04-02T08:37:32.154Z,75.24
2023-04-02T08:47:41.747Z,75.40
2023-04-02T08:58:02.009Z,75.02
2023-04-02T09:08:19.339Z,74.20
2023-04-02T09:18:23.274Z,73.76
2023-04-02T09:28:27.372Z,73.04
2023-04-02T09:38:33.130Z,72.11
2023-04-02T09:49:16.249Z,71.17
2023-04-02T09:59:22.925Z,69.74
2023-04-02T10:09:34.528Z,68.57
2023-04-02T10:19:43.455Z,67.06
2023-04-02T10:30:04.388Z,66.04
2023-04-02T10:40:37.042Z,65.10
2023-04-02T10:51:01.825Z,63.86
2023-04-02T11:01:17.178Z,62.57
2023-04-02T11:11:29.590Z,61.68
2023-04-02T11:21:57.233Z,61.14
2023-04-02T11:32:22.626Z,60.81
2023-04-02T11:42:27.970Z,60.43
2023-04-02T11:52:38.176Z,59.81
2023-04-02T12:03:16.851Z,60.57
2023-04-02T12:13:39.628Z,60.33
2023-04-02T12:23:47.885Z,60.42
2023-04-02T12:33:55.607Z,59.53
2023-04-02T12:44:11.752Z,57.64
2023-04-02T12:54:20.531Z,55.77
2023-04-02T13:04:24.307Z,54.25
2023-04-02T13:14:31.502Z,53.28
2023-04-02T13:24:35.093Z,50.87
2023-04-02T13:34:38.751Z,50.10
2023-04-02T13:44:42.624Z,49.32
2023-04-02T13:55:04.458Z,50.25
2023-04-02T14:05:33.525Z,49.92
2023-04-02T14:16:21.614Z,48.64
2023-04-02T14:26:47.531Z,48.07
2023-04-02T14:36:57.815Z,47.54
2023-04-02T14:47:21.804Z,47.13
2023-04-02T14:57:25.395Z,46.59
2023-04-02T15:07:58.516Z,45.47
2023-04-02T15:18:02.709Z,44.09
2023-04-02T15:28:24.490Z,43.99
2023-04-02T15:38:46.869Z,44.18
2023-04-02T15:49:13.294Z,43.55
2023-04-02T15:59:33.325Z,41.91
2023-04-02T16:09:51.868Z,41.12
2023-04-02T16:20:27.546Z,40.11
2023-04-02T16:30:45.955Z,38.00
2023-04-02T16:41:28.817Z,37.21
2023-04-02T16:52:00.189Z,37.62
2023-04-02T17:02:22.181Z,37.88
2023-04-02T17:12:41.567Z,37.13
2023-04-02T17:22:48.243Z,38.01
2023-04-02T17:32:51.989Z,38.81
2023-04-02T17:43:01.561Z,39.37
2023-04-02T17:53:13.357Z,39.81
2023-04-02T18:03:36.496Z,40.02
2023-04-02T18:13:46.078Z,40.21
2023-04-02T18:23:54.723Z,40.16
2023-04-02T18:34:39.631Z,40.28
2023-04-02T18:44:52.196Z,40.05
2023-04-02T18:55:08.585Z,40.13
2023-04-02T19:05:16.236Z,40.80
2023-04-02T19:15:24.236Z,41.41
2023-04-02T19:25:36.673Z,41.97
2023-04-02T19:35:50.881Z,41.83
2023-04-02T19:45:55.176Z,41.76
2023-04-02T19:55:58.915Z,41.62
2023-04-02T20:06:02.624Z,41.34
2023-04-02T20:16:07.947Z,41.42
2023-04-02T20:26:12.926Z,41.28
2023-04-02T20:36:18.268Z,41.73
2023-04-02T20:46:23.311Z,42.31
2023-04-02T20:56:32.421Z,42.99
2023-04-02T21:06:41.052Z,43.98
2023-04-02T21:16:47.425Z,44.18
2023-04-02T21:26:51.740Z,44.96
2023-04-02T21:36:57.014Z,45.25
2023-04-02T21:47:00.928Z,46.36
2023-04-02T21:57:06.758Z,47.56
2023-04-02T22:07:12.105Z,48.25
2023-04-02T22:17:20.080Z,48.92
2023-04-02T22:27:25.725Z,49.17
2023-04-02T22:37:31.832Z,49.36
2023-04-02T22:47:37.297Z,49.75
2023-04-02T22:57:42.695Z,50.50
2023-04-02T23:07:49.976Z,51.44
2023-04-02T23:17:53.814Z,51.71
2023-04-02T23:27:59.414Z,52.36
2023-04-02T23:38:03.331Z,52.70
2023-04-02T23:48:07.073Z,53.54
2023-04-02T23:58:12.205Z,54.30
